sensor_id;sensor_type;location;lat;lon;timestamp;pressure;altitude;pressure_sealevel;temperature;humidity
37170;BME280;23062;13.952;100.608;2023-08-31T00:03:10;1007.10;;;31.09;53.88
37170;BME280;23062;13.952;100.608;2023-08-31T00:07:25;1007.21;;;31.08;54.04
37170;BME280;23062;13.952;100.608;2023-08-31T00:11:40;1007.24;;;31.09;54.15
37170;BME280;23062;13.952;100.608;2023-08-31T00:15:58;1007.30;;;31.13;54.38
37170;BME280;23062;13.952;100.608;2023-08-31T00:20:10;1007.36;;;31.12;54.48
37170;BME280;23062;13.952;100.608;2023-08-31T00:24:25;1007.39;;;31.15;54.25
37170;BME280;23062;13.952;100.608;2023-08-31T00:28:40;1007.37;;;31.16;54.45
37170;BME280;23062;13.952;100.608;2023-08-31T00:32:55;1007.45;;;31.17;54.51
37170;BME280;23062;13.952;100.608;2023-08-31T00:37:10;1007.48;;;31.19;54.63
37170;BME280;23062;13.952;100.608;2023-08-31T00:41:25;1007.48;;;31.21;54.70
37170;BME280;23062;13.952;100.608;2023-08-31T00:45:40;1007.43;;;31.22;54.58
37170;BME280;23062;13.952;100.608;2023-08-31T00:49:55;1007.47;;;31.24;54.81
37170;BME280;23062;13.952;100.608;2023-08-31T00:54:09;1007.51;;;31.29;54.35
37170;BME280;23062;13.952;100.608;2023-08-31T00:58:26;1007.63;;;31.34;53.83
37170;BME280;23062;13.952;100.608;2023-08-31T01:02:44;1007.69;;;31.40;53.60
37170;BME280;23062;13.952;100.608;2023-08-31T01:11:25;1007.71;;;31.45;54.39
37170;BME280;23062;13.952;100.608;2023-08-31T01:15:26;1007.77;;;31.49;54.16
37170;BME280;23062;13.952;100.608;2023-08-31T01:19:50;1007.90;;;31.50;54.44
37170;BME280;23062;13.952;100.608;2023-08-31T01:23:56;1007.91;;;31.52;54.49
37170;BME280;23062;13.952;100.608;2023-08-31T01:28:10;1007.96;;;31.54;54.58
37170;BME280;23062;13.952;100.608;2023-08-31T01:32:25;1007.95;;;31.56;54.68
37170;BME280;23062;13.952;100.608;2023-08-31T01:36:42;1008.02;;;31.59;54.61
37170;BME280;23062;13.952;100.608;2023-08-31T01:40:59;1008.10;;;31.62;54.76
37170;BME280;23062;13.952;100.608;2023-08-31T01:45:14;1007.99;;;31.67;54.95
37170;BME280;23062;13.952;100.608;2023-08-31T01:49:25;1008.02;;;31.72;55.22
37170;BME280;23062;13.952;100.608;2023-08-31T01:53:41;1008.01;;;31.80;55.56
37170;BME280;23062;13.952;100.608;2023-08-31T01:57:55;1007.94;;;31.88;55.79
37170;BME280;23062;13.952;100.608;2023-08-31T02:02:11;1007.93;;;31.97;56.05
37170;BME280;23062;13.952;100.608;2023-08-31T02:06:24;1008.00;;;32.06;56.20
37170;BME280;23062;13.952;100.608;2023-08-31T02:10:41;1008.02;;;32.13;56.38
37170;BME280;23062;13.952;100.608;2023-08-31T02:14:55;1007.98;;;32.17;56.55
37170;BME280;23062;13.952;100.608;2023-08-31T02:19:10;1008.00;;;32.22;56.46
37170;BME280;23062;13.952;100.608;2023-08-31T02:23:25;1007.89;;;32.26;56.51
37170;BME280;23062;13.952;100.608;2023-08-31T02:27:40;1007.97;;;32.30;56.47
37170;BME280;23062;13.952;100.608;2023-08-31T02:31:55;1007.95;;;32.34;56.45
37170;BME280;23062;13.952;100.608;2023-08-31T02:36:10;1007.93;;;32.40;56.55
37170;BME280;23062;13.952;100.608;2023-08-31T02:40:25;1007.92;;;32.46;56.46
37170;BME280;23062;13.952;100.608;2023-08-31T02:44:40;1007.87;;;32.50;56.44
37170;BME280;23062;13.952;100.608;2023-08-31T02:48:55;1007.85;;;32.57;56.33
37170;BME280;23062;13.952;100.608;2023-08-31T02:53:12;1007.90;;;32.61;56.37
37170;BME280;23062;13.952;100.608;2023-08-31T02:57:25;1007.84;;;32.64;56.35
37170;BME280;23062;13.952;100.608;2023-08-31T03:01:41;1007.80;;;32.69;56.38
37170;BME280;23062;13.952;100.608;2023-08-31T03:05:57;1007.79;;;32.72;56.36
37170;BME280;23062;13.952;100.608;2023-08-31T03:10:10;1007.87;;;32.76;56.32
37170;BME280;23062;13.952;100.608;2023-08-31T03:14:25;1007.86;;;32.79;56.22
37170;BME280;23062;13.952;100.608;2023-08-31T03:18:42;1007.82;;;32.83;56.15
37170;BME280;23062;13.952;100.608;2023-08-31T03:22:56;1007.78;;;32.85;56.08
37170;BME280;23062;13.952;100.608;2023-08-31T03:27:10;1007.75;;;32.88;56.06
37170;BME280;23062;13.952;100.608;2023-08-31T03:31:25;1007.70;;;32.91;55.96
37170;BME280;23062;13.952;100.608;2023-08-31T03:35:40;1007.65;;;32.94;56.00
37170;BME280;23062;13.952;100.608;2023-08-31T03:39:55;1007.58;;;32.97;55.88
37170;BME280;23062;13.952;100.608;2023-08-31T03:44:11;1007.59;;;33.01;55.80
37170;BME280;23062;13.952;100.608;2023-08-31T03:48:26;1007.62;;;33.05;55.78
37170;BME280;23062;13.952;100.608;2023-08-31T03:52:40;1007.60;;;33.08;55.74
37170;BME280;23062;13.952;100.608;2023-08-31T03:56:55;1007.56;;;33.12;55.63
37170;BME280;23062;13.952;100.608;2023-08-31T04:01:11;1007.55;;;33.16;55.58
37170;BME280;23062;13.952;100.608;2023-08-31T04:05:25;1007.51;;;33.20;55.51
37170;BME280;23062;13.952;100.608;2023-08-31T04:09:40;1007.44;;;33.25;55.41
37170;BME280;23062;13.952;100.608;2023-08-31T04:13:55;1007.39;;;33.30;55.33
37170;BME280;23062;13.952;100.608;2023-08-31T04:18:11;1007.33;;;33.34;55.22
37170;BME280;23062;13.952;100.608;2023-08-31T04:22:25;1007.28;;;33.39;55.07
37170;BME280;23062;13.952;100.608;2023-08-31T04:26:42;1007.27;;;33.45;55.04
37170;BME280;23062;13.952;100.608;2023-08-31T04:30:55;1007.19;;;33.49;54.92
37170;BME280;23062;13.952;100.608;2023-08-31T04:35:10;1007.13;;;33.54;54.80
37170;BME280;23062;13.952;100.608;2023-08-31T04:39:26;1007.03;;;33.59;54.68
37170;BME280;23062;13.952;100.608;2023-08-31T04:43:40;1007.02;;;33.59;54.71
37170;BME280;23062;13.952;100.608;2023-08-31T04:47:55;1006.99;;;33.63;54.59
37170;BME280;23062;13.952;100.608;2023-08-31T04:52:10;1006.95;;;33.68;54.42
37170;BME280;23062;13.952;100.608;2023-08-31T04:56:28;1006.94;;;33.73;54.23
37170;BME280;23062;13.952;100.608;2023-08-31T05:00:40;1006.93;;;33.76;54.16
37170;BME280;23062;13.952;100.608;2023-08-31T05:04:55;1006.83;;;33.80;54.08
37170;BME280;23062;13.952;100.608;2023-08-31T05:09:11;1006.80;;;33.84;53.96
37170;BME280;23062;13.952;100.608;2023-08-31T05:13:24;1006.69;;;33.86;53.87
37170;BME280;23062;13.952;100.608;2023-08-31T05:17:41;1006.61;;;33.90;53.78
37170;BME280;23062;13.952;100.608;2023-08-31T05:21:55;1006.57;;;33.93;53.71
37170;BME280;23062;13.952;100.608;2023-08-31T05:26:10;1006.48;;;33.97;53.60
37170;BME280;23062;13.952;100.608;2023-08-31T05:30:24;1006.48;;;34.01;53.55
37170;BME280;23062;13.952;100.608;2023-08-31T05:34:40;1006.44;;;34.02;53.49
37170;BME280;23062;13.952;100.608;2023-08-31T05:38:58;1006.26;;;34.05;53.44
37170;BME280;23062;13.952;100.608;2023-08-31T05:43:10;1006.09;;;34.07;53.40
37170;BME280;23062;13.952;100.608;2023-08-31T05:47:27;1005.93;;;34.11;53.31
37170;BME280;23062;13.952;100.608;2023-08-31T05:51:41;1005.75;;;34.13;53.26
37170;BME280;23062;13.952;100.608;2023-08-31T05:55:56;1005.62;;;34.15;53.25
37170;BME280;23062;13.952;100.608;2023-08-31T06:00:10;1005.55;;;34.19;53.13
37170;BME280;23062;13.952;100.608;2023-08-31T06:04:28;1005.34;;;34.23;53.07
37170;BME280;23062;13.952;100.608;2023-08-31T06:08:41;1005.28;;;34.25;53.03
37170;BME280;23062;13.952;100.608;2023-08-31T06:12:55;1005.08;;;34.29;52.98
37170;BME280;23062;13.952;100.608;2023-08-31T06:17:10;1005.02;;;34.33;52.88
37170;BME280;23062;13.952;100.608;2023-08-31T06:21:25;1004.96;;;34.35;52.82
37170;BME280;23062;13.952;100.608;2023-08-31T06:25:41;1004.88;;;34.40;52.79
37170;BME280;23062;13.952;100.608;2023-08-31T06:29:56;1004.80;;;34.44;52.71
37170;BME280;23062;13.952;100.608;2023-08-31T06:34:10;1004.70;;;34.48;52.57
37170;BME280;23062;13.952;100.608;2023-08-31T06:38:26;1004.59;;;34.53;52.53
37170;BME280;23062;13.952;100.608;2023-08-31T06:42:40;1004.48;;;34.56;52.47
37170;BME280;23062;13.952;100.608;2023-08-31T06:46:55;1004.38;;;34.59;52.42
37170;BME280;23062;13.952;100.608;2023-08-31T06:51:10;1004.26;;;34.61;52.31
37170;BME280;23062;13.952;100.608;2023-08-31T06:55:26;1004.18;;;34.65;52.19
37170;BME280;23062;13.952;100.608;2023-08-31T06:59:41;1004.03;;;34.69;52.10
37170;BME280;23062;13.952;100.608;2023-08-31T07:03:55;1003.98;;;34.72;52.04
37170;BME280;23062;13.952;100.608;2023-08-31T07:08:11;1003.94;;;34.76;51.97
37170;BME280;23062;13.952;100.608;2023-08-31T07:12:25;1003.92;;;34.79;51.84
37170;BME280;23062;13.952;100.608;2023-08-31T07:16:40;1003.91;;;34.83;51.75
37170;BME280;23062;13.952;100.608;2023-08-31T07:20:55;1003.80;;;34.86;51.68
37170;BME280;23062;13.952;100.608;2023-08-31T07:25:10;1003.82;;;34.89;51.63
37170;BME280;23062;13.952;100.608;2023-08-31T07:29:26;1003.77;;;34.92;51.55
37170;BME280;23062;13.952;100.608;2023-08-31T07:33:41;1003.68;;;34.97;51.36
37170;BME280;23062;13.952;100.608;2023-08-31T07:37:56;1003.70;;;35.00;51.21
37170;BME280;23062;13.952;100.608;2023-08-31T07:42:10;1003.66;;;35.03;51.15
37170;BME280;23062;13.952;100.608;2023-08-31T07:46:25;1003.66;;;35.07;51.04
37170;BME280;23062;13.952;100.608;2023-08-31T07:50:42;1003.65;;;35.11;50.89
37170;BME280;23062;13.952;100.608;2023-08-31T07:54:55;1003.50;;;35.15;50.79
37170;BME280;23062;13.952;100.608;2023-08-31T07:59:11;1003.46;;;35.17;50.79
37170;BME280;23062;13.952;100.608;2023-08-31T08:03:27;1003.44;;;35.18;50.77
37170;BME280;23062;13.952;100.608;2023-08-31T08:07:41;1003.40;;;35.19;50.74
37170;BME280;23062;13.952;100.608;2023-08-31T08:11:55;1003.39;;;35.20;50.68
37170;BME280;23062;13.952;100.608;2023-08-31T08:16:10;1003.29;;;35.22;50.61
37170;BME280;23062;13.952;100.608;2023-08-31T08:20:26;1003.25;;;35.25;50.51
37170;BME280;23062;13.952;100.608;2023-08-31T08:24:41;1003.22;;;35.26;50.41
37170;BME280;23062;13.952;100.608;2023-08-31T08:28:55;1003.21;;;35.28;50.31
37170;BME280;23062;13.952;100.608;2023-08-31T08:33:11;1003.26;;;35.33;50.17
37170;BME280;23062;13.952;100.608;2023-08-31T08:37:27;1003.15;;;35.35;50.06
37170;BME280;23062;13.952;100.608;2023-08-31T08:41:41;1003.17;;;35.37;50.03
37170;BME280;23062;13.952;100.608;2023-08-31T08:45:56;1003.01;;;35.39;49.99
37170;BME280;23062;13.952;100.608;2023-08-31T08:50:12;1003.02;;;35.41;49.85
37170;BME280;23062;13.952;100.608;2023-08-31T08:54:26;1002.98;;;35.43;49.75
37170;BME280;23062;13.952;100.608;2023-08-31T08:58:40;1002.99;;;35.46;49.70
37170;BME280;23062;13.952;100.608;2023-08-31T09:02:55;1002.96;;;35.48;49.61
37170;BME280;23062;13.952;100.608;2023-08-31T09:07:11;1002.86;;;35.49;49.53
37170;BME280;23062;13.952;100.608;2023-08-31T09:11:26;1002.83;;;35.52;49.44
37170;BME280;23062;13.952;100.608;2023-08-31T09:15:45;1002.85;;;35.54;49.37
37170;BME280;23062;13.952;100.608;2023-08-31T09:20:04;1002.90;;;35.55;49.40
37170;BME280;23062;13.952;100.608;2023-08-31T09:24:10;1002.97;;;35.56;49.33
37170;BME280;23062;13.952;100.608;2023-08-31T09:28:28;1002.94;;;35.57;49.28
37170;BME280;23062;13.952;100.608;2023-08-31T09:32:40;1002.92;;;35.58;49.20
37170;BME280;23062;13.952;100.608;2023-08-31T09:36:55;1002.88;;;35.59;49.09
37170;BME280;23062;13.952;100.608;2023-08-31T09:41:10;1002.92;;;35.60;49.04
37170;BME280;23062;13.952;100.608;2023-08-31T09:45:31;1002.92;;;35.60;48.99
37170;BME280;23062;13.952;100.608;2023-08-31T09:49:43;1002.97;;;35.59;48.95
37170;BME280;23062;13.952;100.608;2023-08-31T09:53:57;1003.00;;;35.59;48.87
37170;BME280;23062;13.952;100.608;2023-08-31T09:58:10;1002.97;;;35.58;48.84
37170;BME280;23062;13.952;100.608;2023-08-31T10:02:26;1003.01;;;35.59;48.73
37170;BME280;23062;13.952;100.608;2023-08-31T10:06:46;1003.02;;;35.58;48.67
37170;BME280;23062;13.952;100.608;2023-08-31T10:10:59;1003.03;;;35.56;48.61
37170;BME280;23062;13.952;100.608;2023-08-31T10:15:11;1003.21;;;35.56;48.57
37170;BME280;23062;13.952;100.608;2023-08-31T10:19:25;1003.36;;;35.56;48.38
37170;BME280;23062;13.952;100.608;2023-08-31T10:23:47;1003.41;;;35.55;48.29
37170;BME280;23062;13.952;100.608;2023-08-31T10:27:55;1003.55;;;35.53;48.36
37170;BME280;23062;13.952;100.608;2023-08-31T10:32:16;1003.56;;;35.53;48.42
37170;BME280;23062;13.952;100.608;2023-08-31T10:36:42;1003.65;;;35.52;48.37
37170;BME280;23062;13.952;100.608;2023-08-31T10:40:41;1003.77;;;35.13;49.44
37170;BME280;23062;13.952;100.608;2023-08-31T10:45:00;1003.77;;;35.30;48.99
37170;BME280;23062;13.952;100.608;2023-08-31T10:49:15;1003.91;;;35.23;49.07
37170;BME280;23062;13.952;100.608;2023-08-31T10:53:28;1004.05;;;35.27;48.99
37170;BME280;23062;13.952;100.608;2023-08-31T10:57:41;1004.31;;;35.29;48.84
37170;BME280;23062;13.952;100.608;2023-08-31T11:02:00;1004.57;;;35.22;49.01
37170;BME280;23062;13.952;100.608;2023-08-31T11:06:12;1004.76;;;35.18;49.14
37170;BME280;23062;13.952;100.608;2023-08-31T11:10:26;1005.18;;;35.16;49.26
37170;BME280;23062;13.952;100.608;2023-08-31T11:14:41;1005.48;;;35.16;49.26
37170;BME280;23062;13.952;100.608;2023-08-31T11:18:56;1006.14;;;35.05;49.57
37170;BME280;23062;13.952;100.608;2023-08-31T11:23:11;1006.50;;;35.00;49.79
37170;BME280;23062;13.952;100.608;2023-08-31T11:27:26;1006.83;;;34.96;50.00
37170;BME280;23062;13.952;100.608;2023-08-31T11:31:41;1007.08;;;34.78;50.61
37170;BME280;23062;13.952;100.608;2023-08-31T11:35:58;1007.24;;;34.45;51.42
37170;BME280;23062;13.952;100.608;2023-08-31T11:38:37;1007.60;;;31.90;63.96
37170;BME280;23062;13.952;100.608;2023-08-31T11:42:53;1007.51;;;31.01;68.23
37170;BME280;23062;13.952;100.608;2023-08-31T11:47:09;1007.37;;;30.72;69.59
